Time;durP1;ratioP1;P1;durP2;ratioP2;P2;SDS_P1;SDS_P2;PMS_P1;PMS_P2;Temp;Humidity;BMP_temperature;BMP_pressure;BME280_temperature;BME280_humidity;BME280_pressure;Samples;Min_cycle;Max_cycle;Signal;HPM_P1;HPM_P2
2023/04/12 00:02:01;;;;;;;9.27;6.30;;;3.90;99.90;;;;;;5083449;28;20198;-59
2023/04/12 00:04:28;;;;;;;10.93;6.87;;;3.90;99.90;;;;;;5060714;28;21104;-52
2023/04/12 00:06:55;;;;;;;11.33;5.90;;;3.90;99.90;;;;;;5081318;28;20186;-58
2023/04/12 00:09:23;;;;;;;12.50;6.27;;;3.90;99.90;;;;;;5079727;28;20585;-56
2023/04/12 00:11:49;;;;;;;9.47;7.00;;;3.90;99.90;;;;;;5084353;28;20229;-54
2023/04/12 00:14:17;;;;;;;8.13;6.27;;;3.90;99.90;;;;;;5074662;28;23361;-54
2023/04/12 00:16:44;;;;;;;11.43;6.00;;;3.90;99.90;;;;;;5084992;28;20217;-53
2023/04/12 00:19:11;;;;;;;14.97;6.80;;;3.90;99.90;;;;;;5058605;28;20213;-55
2023/04/12 00:21:39;;;;;;;8.77;6.40;;;3.90;99.90;;;;;;5078963;28;20854;-58
2023/04/12 00:24:06;;;;;;;8.97;6.43;;;4.00;99.90;;;;;;5075528;28;20193;-59
2023/04/12 00:26:33;;;;;;;12.83;5.93;;;4.00;99.90;;;;;;5083112;28;20190;-58
2023/04/12 00:29:00;;;;;;;11.50;6.33;;;4.00;99.90;;;;;;5075476;28;20586;-59
2023/04/12 00:31:28;;;;;;;9.70;5.87;;;4.00;99.90;;;;;;5068392;28;20260;-56
2023/04/12 00:33:56;;;;;;;10.20;5.67;;;4.00;99.90;;;;;;5059325;28;20187;-60
2023/04/12 00:36:22;;;;;;;9.60;5.67;;;4.00;99.90;;;;;;5051785;28;20991;-56
2023/04/12 00:38:50;;;;;;;10.90;5.80;;;4.00;99.90;;;;;;5081213;28;20224;-54
2023/04/12 00:41:17;;;;;;;11.70;6.13;;;3.90;99.90;;;;;;5081770;28;20182;-55
2023/04/12 00:43:46;;;;;;;7.33;5.70;;;3.90;99.90;;;;;;5068081;28;20220;-54
2023/04/12 00:46:12;;;;;;;13.93;5.47;;;3.90;99.90;;;;;;5063174;28;20190;-58
2023/04/12 00:48:41;;;;;;;7.67;5.10;;;3.90;99.90;;;;;;5078984;28;20248;-56
2023/04/12 00:51:08;;;;;;;7.67;4.87;;;3.90;99.90;;;;;;5047995;28;20186;-58
2023/04/12 00:53:37;;;;;;;9.00;4.90;;;3.90;99.90;;;;;;5084239;28;20572;-56
2023/04/12 00:56:06;;;;;;;9.37;5.20;;;3.80;99.90;;;;;;5063810;28;20288;-60
2023/04/12 00:58:33;;;;;;;9.33;5.73;;;3.90;99.90;;;;;;5080401;28;20305;-53
2023/04/12 01:01:01;;;;;;;7.30;5.07;;;3.90;99.90;;;;;;5051908;28;20213;-59
2023/04/12 01:03:52;;;;;;;7.97;4.60;;;3.80;99.90;;;;;;5068994;28;20212;-57
2023/04/12 01:06:34;;;;;;;9.17;5.03;;;3.80;99.90;;;;;;5055204;28;20205;-54
2023/04/12 01:09:15;;;;;;;9.30;5.37;;;3.80;99.90;;;;;;5077383;28;20218;-59
2023/04/12 01:11:47;;;;;;;9.77;4.87;;;3.80;99.90;;;;;;5089859;28;20202;-55
2023/04/12 01:14:20;;;;;;;6.30;4.43;;;3.80;99.90;;;;;;5081725;28;20932;-54
2023/04/12 01:16:50;;;;;;;6.27;4.77;;;3.80;99.90;;;;;;5049987;28;20749;-60
2023/04/12 01:19:52;;;;;;;6.20;4.50;;;3.80;99.90;;;;;;5046008;28;20933;-57
2023/04/12 01:22:37;;;;;;;7.17;4.40;;;3.80;99.90;;;;;;5055506;28;20292;-59
2023/04/12 01:25:22;;;;;;;5.13;4.53;;;3.80;99.90;;;;;;5085608;28;20197;-58
2023/04/12 01:27:56;;;;;;;4.30;3.40;;;3.80;99.90;;;;;;5077597;28;20209;-56
2023/04/12 01:30:27;;;;;;;5.00;3.77;;;3.80;99.90;;;;;;5050149;28;21025;-58
2023/04/12 01:32:56;;;;;;;5.80;3.97;;;3.80;99.90;;;;;;5065154;28;20202;-59
2023/04/12 01:35:28;;;;;;;4.67;3.70;;;3.80;99.90;;;;;;5079839;28;20190;-56
2023/04/12 01:37:55;;;;;;;4.40;3.80;;;3.80;99.90;;;;;;5042000;28;20309;-59
2023/04/12 01:40:24;;;;;;;7.47;4.20;;;3.80;99.90;;;;;;5061521;28;20190;-56
2023/04/12 01:43:04;;;;;;;9.13;4.23;;;3.80;99.90;;;;;;5082585;28;20200;-57
2023/04/12 01:45:31;;;;;;;7.07;3.77;;;3.80;99.90;;;;;;5056436;28;20689;-58
2023/04/12 01:47:58;;;;;;;8.90;4.67;;;3.70;99.90;;;;;;5042806;28;20243;-56
2023/04/12 01:50:33;;;;;;;7.97;3.77;;;3.70;99.90;;;;;;5080257;28;20913;-53
2023/04/12 01:53:04;;;;;;;7.13;4.30;;;3.70;99.90;;;;;;5068398;28;20604;-60
2023/04/12 01:55:33;;;;;;;5.47;3.70;;;3.70;99.90;;;;;;5077021;28;20198;-57
2023/04/12 01:58:04;;;;;;;6.97;3.53;;;3.70;99.90;;;;;;5061612;28;20229;-60
2023/04/12 02:00:35;;;;;;;4.97;3.97;;;3.70;99.90;;;;;;5055302;28;20216;-56
2023/04/12 02:03:03;;;;;;;4.50;3.60;;;3.70;99.90;;;;;;5070005;28;20720;-59
2023/04/12 02:05:30;;;;;;;4.30;3.50;;;3.70;99.90;;;;;;5061937;28;20194;-55
2023/04/12 02:07:58;;;;;;;6.90;3.90;;;3.70;99.90;;;;;;5062985;28;20611;-59
2023/04/12 02:10:29;;;;;;;6.83;3.83;;;3.70;99.90;;;;;;5058761;28;20299;-60
2023/04/12 02:12:58;;;;;;;7.10;3.40;;;3.70;99.90;;;;;;5073689;28;20205;-58
2023/04/12 02:15:27;;;;;;;7.43;4.10;;;3.70;99.90;;;;;;5075754;28;20188;-58
2023/04/12 02:17:54;;;;;;;6.43;3.10;;;3.70;99.90;;;;;;5079682;28;20222;-60
2023/04/12 02:20:23;;;;;;;11.40;3.10;;;3.70;99.90;;;;;;5052213;28;20214;-56
2023/04/12 02:22:50;;;;;;;3.50;3.20;;;3.70;99.90;;;;;;5081712;28;20194;-55
2023/04/12 02:25:17;;;;;;;8.00;3.40;;;3.70;99.90;;;;;;5054076;28;20201;-57
2023/04/12 02:27:45;;;;;;;7.33;3.80;;;3.70;99.90;;;;;;5072704;28;20214;-58
2023/04/12 02:30:13;;;;;;;5.40;2.87;;;3.70;99.90;;;;;;5062909;28;20290;-58
2023/04/12 02:32:46;;;;;;;8.83;3.43;;;3.70;99.90;;;;;;5062841;28;20205;-55
2023/04/12 02:35:21;;;;;;;5.87;3.30;;;3.70;99.90;;;;;;5051312;28;20224;-56
2023/04/12 02:37:53;;;;;;;5.80;2.67;;;3.70;99.90;;;;;;5063469;28;20638;-59
2023/04/12 02:40:22;;;;;;;3.47;2.90;;;3.70;99.90;;;;;;5028711;28;20240;-56
2023/04/12 02:42:49;;;;;;;4.47;3.10;;;3.70;99.90;;;;;;5075171;28;20563;-56
2023/04/12 02:45:16;;;;;;;6.93;2.90;;;3.70;99.90;;;;;;5077803;28;20379;-58
2023/04/12 02:47:44;;;;;;;3.63;2.90;;;3.70;99.90;;;;;;5081186;28;20217;-55
2023/04/12 02:50:11;;;;;;;3.43;2.50;;;3.70;99.90;;;;;;5045666;28;20301;-56
2023/04/12 02:52:49;;;;;;;4.70;2.70;;;3.70;99.90;;;;;;5060320;28;20203;-59
2023/04/12 02:55:16;;;;;;;5.60;2.93;;;3.70;99.90;;;;;;5070570;28;20195;-58
2023/04/12 02:57:44;;;;;;;4.10;2.60;;;3.70;99.90;;;;;;5039048;28;20230;-54
2023/04/12 03:00:12;;;;;;;4.37;2.20;;;3.70;99.90;;;;;;5059527;28;20219;-58
2023/04/12 03:02:43;;;;;;;7.00;2.50;;;3.70;99.90;;;;;;5062555;28;20202;-55
2023/04/12 03:05:19;;;;;;;5.70;2.73;;;3.70;99.90;;;;;;5049931;28;20205;-59
2023/04/12 03:07:47;;;;;;;3.37;2.63;;;3.70;99.90;;;;;;5076042;28;20209;-57
2023/04/12 03:10:18;;;;;;;3.93;2.30;;;3.80;99.90;;;;;;5053381;28;20956;-56
2023/04/12 03:12:52;;;;;;;6.57;2.43;;;3.80;99.90;;;;;;5039388;28;20279;-59
2023/04/12 03:15:22;;;;;;;3.47;2.63;;;3.80;99.90;;;;;;5047769;28;20689;-59
2023/04/12 03:17:48;;;;;;;3.80;2.47;;;3.80;99.90;;;;;;5083896;28;20279;-57
2023/04/12 03:20:19;;;;;;;5.37;2.70;;;3.80;99.90;;;;;;5062851;28;20194;-60
2023/04/12 03:22:56;;;;;;;4.37;2.47;;;3.80;99.90;;;;;;5055720;28;20197;-56
2023/04/12 03:25:22;;;;;;;6.60;3.40;;;3.90;99.90;;;;;;5062677;28;20281;-60
2023/04/12 03:27:55;;;;;;;5.53;2.33;;;3.90;99.90;;;;;;5041755;28;20306;-58
2023/04/12 03:30:42;;;;;;;5.27;2.50;;;4.00;99.90;;;;;;5063540;28;20193;-58
2023/04/12 03:33:10;;;;;;;6.23;2.40;;;4.00;99.90;;;;;;5065823;28;20274;-55
2023/04/12 03:35:38;;;;;;;9.07;2.97;;;4.00;99.90;;;;;;5066217;28;20227;-58
2023/04/12 03:38:05;;;;;;;4.67;2.23;;;4.10;99.90;;;;;;5060555;28;20218;-50
2023/04/12 03:40:32;;;;;;;4.53;2.27;;;4.10;99.90;;;;;;5061984;28;20704;-61
2023/04/12 03:43:02;;;;;;;8.80;2.20;;;4.10;99.90;;;;;;5061630;28;20205;-55
2023/04/12 03:45:30;;;;;;;5.07;2.23;;;4.10;99.90;;;;;;5063639;28;20687;-60
2023/04/12 03:48:00;;;;;;;4.10;2.07;;;4.10;99.90;;;;;;5083128;28;20259;-57
2023/04/12 03:50:30;;;;;;;4.20;2.10;;;4.10;99.90;;;;;;5054761;28;20220;-58
2023/04/12 03:52:59;;;;;;;4.00;2.27;;;4.10;99.90;;;;;;5072276;28;20212;-54
2023/04/12 03:55:46;;;;;;;2.30;1.50;;;4.20;99.90;;;;;;5081944;28;20209;-56
2023/04/12 03:58:15;;;;;;;7.47;1.97;;;4.20;99.90;;;;;;5043460;28;20384;-55
2023/04/12 04:00:45;;;;;;;3.67;1.70;;;4.20;99.90;;;;;;5053846;28;20845;-57
2023/04/12 04:03:13;;;;;;;3.83;1.73;;;4.20;99.90;;;;;;5058334;28;20186;-57
2023/04/12 04:05:45;;;;;;;7.00;2.17;;;4.20;99.90;;;;;;5057134;28;20197;-58
2023/04/12 04:08:14;;;;;;;5.63;2.27;;;4.10;99.90;;;;;;5047373;28;20298;-57
2023/04/12 04:10:50;;;;;;;4.50;2.33;;;4.20;99.90;;;;;;5064420;28;20193;-57
2023/04/12 04:13:20;;;;;;;6.27;2.30;;;4.10;99.90;;;;;;5061030;28;20673;-60
2023/04/12 04:15:49;;;;;;;4.37;1.83;;;4.20;99.90;;;;;;5065109;28;20209;-59
2023/04/12 04:18:16;;;;;;;5.83;1.70;;;4.20;99.90;;;;;;5054637;28;20614;-59
2023/04/12 04:20:44;;;;;;;3.70;1.80;;;4.20;99.90;;;;;;5060604;28;20205;-55
2023/04/12 04:23:12;;;;;;;5.00;1.63;;;4.20;99.90;;;;;;5054885;28;20217;-56
2023/04/12 04:25:42;;;;;;;4.57;1.93;;;4.20;99.90;;;;;;5061669;28;21012;-59
2023/04/12 04:28:14;;;;;;;6.87;1.73;;;4.20;99.90;;;;;;5062278;28;20237;-53
2023/04/12 04:30:44;;;;;;;2.60;1.67;;;4.20;99.90;;;;;;5034996;28;20960;-59
2023/04/12 04:33:14;;;;;;;6.50;1.80;;;4.20;99.90;;;;;;5056969;28;20213;-56
2023/04/12 04:35:42;;;;;;;3.60;1.70;;;4.20;99.90;;;;;;5070610;28;20190;-52
2023/04/12 04:38:24;;;;;;;3.27;1.63;;;4.20;99.90;;;;;;5051978;28;20245;-60
2023/04/12 04:40:54;;;;;;;1.87;1.77;;;4.20;99.90;;;;;;5052618;28;20744;-53
2023/04/12 04:43:29;;;;;;;4.87;1.67;;;4.30;99.90;;;;;;5058715;28;20197;-58
2023/04/12 04:46:01;;;;;;;4.33;1.80;;;4.30;99.90;;;;;;5021924;28;20217;-55
2023/04/12 04:48:29;;;;;;;4.53;1.90;;;4.30;99.90;;;;;;5055705;28;20841;-59
2023/04/12 04:50:56;;;;;;;1.77;1.40;;;4.30;99.90;;;;;;5073885;28;20202;-53
2023/04/12 04:53:23;;;;;;;6.67;1.77;;;4.30;99.90;;;;;;5048135;28;20202;-60
2023/04/12 04:55:59;;;;;;;3.80;2.07;;;4.40;99.90;;;;;;5044106;28;20725;-56
2023/04/12 04:58:30;;;;;;;3.57;1.73;;;4.40;99.90;;;;;;5056987;28;20249;-60
2023/04/12 05:00:59;;;;;;;4.13;1.80;;;4.40;99.90;;;;;;5032231;28;20186;-53
2023/04/12 05:03:28;;;;;;;2.73;1.50;;;4.40;99.90;;;;;;5054314;28;20209;-59
2023/04/12 05:05:56;;;;;;;3.43;1.60;;;4.40;99.90;;;;;;5056400;28;20297;-55
2023/04/12 05:08:23;;;;;;;4.13;1.67;;;4.40;99.90;;;;;;5075248;28;20292;-60
2023/04/12 05:10:51;;;;;;;4.27;1.40;;;4.40;99.90;;;;;;5065426;28;20209;-57
2023/04/12 05:13:21;;;;;;;2.17;1.77;;;4.40;99.90;;;;;;5043961;28;20214;-57
2023/04/12 05:15:48;;;;;;;3.73;1.50;;;4.50;99.90;;;;;;5051921;28;20190;-59
2023/04/12 05:18:16;;;;;;;3.67;1.70;;;4.50;99.90;;;;;;5035457;28;20221;-56
2023/04/12 05:20:44;;;;;;;4.00;1.70;;;4.50;99.90;;;;;;5080404;28;20228;-53
2023/04/12 05:23:11;;;;;;;5.43;1.33;;;4.50;99.90;;;;;;5077628;28;20981;-53
2023/04/12 05:25:45;;;;;;;3.77;1.93;;;4.50;99.90;;;;;;5042642;28;20221;-57
2023/04/12 05:28:14;;;;;;;5.57;1.70;;;4.50;99.90;;;;;;5045389;28;20334;-56
2023/04/12 05:30:43;;;;;;;3.43;1.60;;;4.50;99.90;;;;;;5051837;28;20218;-60
2023/04/12 05:33:14;;;;;;;2.40;1.93;;;4.60;99.90;;;;;;5037228;28;20189;-58
2023/04/12 05:36:03;;;;;;;2.40;1.60;;;4.60;99.90;;;;;;5069641;28;20845;-53
2023/04/12 05:38:31;;;;;;;3.57;1.60;;;4.60;99.90;;;;;;5084471;28;20693;-60
2023/04/12 05:41:04;;;;;;;5.53;1.50;;;4.70;99.90;;;;;;5041209;28;20217;-58
2023/04/12 05:43:33;;;;;;;1.67;1.50;;;4.70;99.90;;;;;;5070740;28;20213;-59
2023/04/12 05:46:00;;;;;;;4.33;1.80;;;4.80;99.90;;;;;;5054316;28;20221;-56
2023/04/12 05:48:28;;;;;;;4.97;1.80;;;4.80;99.90;;;;;;5037038;28;20214;-55
2023/04/12 05:50:57;;;;;;;2.80;1.50;;;4.90;99.90;;;;;;5054421;28;20263;-58
2023/04/12 05:53:23;;;;;;;3.67;1.53;;;4.90;99.90;;;;;;5054318;28;20198;-59
2023/04/12 05:55:53;;;;;;;2.03;1.57;;;5.00;99.90;;;;;;5037583;28;20212;-58
2023/04/12 05:58:19;;;;;;;3.03;1.67;;;5.00;99.90;;;;;;5051774;28;20210;-56
2023/04/12 06:00:48;;;;;;;4.63;2.30;;;5.10;99.90;;;;;;5053804;28;20206;-59
2023/04/12 06:03:17;;;;;;;8.10;1.77;;;5.10;99.90;;;;;;5030349;28;20209;-58
2023/04/12 06:05:44;;;;;;;3.90;1.57;;;5.20;99.90;;;;;;5064185;28;20194;-56
2023/04/12 06:08:13;;;;;;;2.90;1.60;;;5.30;99.90;;;;;;5070761;28;20205;-59
2023/04/12 06:10:41;;;;;;;3.20;1.40;;;5.40;99.90;;;;;;5048164;28;20354;-58
2023/04/12 06:13:09;;;;;;;2.93;1.40;;;5.50;99.90;;;;;;5046297;28;20198;-56
2023/04/12 06:15:40;;;;;;;6.17;1.87;;;5.60;99.90;;;;;;5059638;28;20247;-54
2023/04/12 06:18:08;;;;;;;1.90;1.77;;;5.70;99.90;;;;;;5053491;28;20218;-53
2023/04/12 06:20:39;;;;;;;2.47;1.50;;;5.70;99.90;;;;;;5049135;28;21018;-56
2023/04/12 06:23:28;;;;;;;6.30;1.63;;;5.80;99.90;;;;;;5064325;28;20213;-61
2023/04/12 06:26:15;;;;;;;1.73;1.53;;;5.90;99.90;;;;;;5082575;28;20220;-59
2023/04/12 06:28:42;;;;;;;1.40;1.30;;;6.00;99.90;;;;;;5052315;28;20217;-56
2023/04/12 06:31:09;;;;;;;3.00;1.23;;;6.00;99.90;;;;;;5064557;28;20564;-54
2023/04/12 06:33:39;;;;;;;2.27;1.50;;;6.10;99.90;;;;;;5058857;28;20182;-56
2023/04/12 06:36:10;;;;;;;4.13;1.57;;;6.20;99.90;;;;;;5030119;28;20281;-57
2023/04/12 06:38:37;;;;;;;5.87;1.37;;;6.30;99.90;;;;;;5070358;28;20229;-56
2023/04/12 06:41:26;;;;;;;2.87;1.90;;;6.40;99.90;;;;;;5080981;28;20259;-58
2023/04/12 06:44:00;;;;;;;1.50;1.27;;;6.50;99.90;;;;;;5053787;28;20210;-53
2023/04/12 06:46:27;;;;;;;5.43;1.80;;;6.60;99.90;;;;;;5079955;28;20742;-59
2023/04/12 06:48:54;;;;;;;2.70;1.37;;;6.70;99.90;;;;;;5078456;28;20209;-55
2023/04/12 06:51:23;;;;;;;3.27;1.70;;;6.90;99.90;;;;;;5055696;28;20213;-59
2023/04/12 06:53:50;;;;;;;2.03;1.30;;;7.00;99.90;;;;;;5082965;28;20197;-55
2023/04/12 06:56:17;;;;;;;3.67;1.50;;;7.10;99.90;;;;;;5074531;28;20201;-56
2023/04/12 06:58:44;;;;;;;1.90;1.27;;;7.20;99.90;;;;;;5072045;28;20222;-54
2023/04/12 07:01:12;;;;;;;2.97;1.47;;;7.30;99.90;;;;;;5084688;28;20198;-55
2023/04/12 07:03:39;;;;;;;2.63;1.37;;;7.40;99.90;;;;;;5068023;28;20193;-56
2023/04/12 07:06:30;;;;;;;1.80;1.47;;;7.50;99.90;;;;;;5008468;28;20266;-59
2023/04/12 07:08:57;;;;;;;4.40;1.77;;;7.60;99.90;;;;;;5076664;28;20858;-52
2023/04/12 07:11:24;;;;;;;3.87;1.30;;;7.80;99.90;;;;;;5075693;28;20209;-54
2023/04/12 07:13:52;;;;;;;4.23;1.57;;;7.80;99.90;;;;;;5071700;28;20968;-52
2023/04/12 07:16:19;;;;;;;5.17;1.60;;;8.00;99.90;;;;;;5065236;28;20191;-59
2023/04/12 07:19:08;;;;;;;3.97;1.50;;;8.20;99.90;;;;;;5064465;28;20237;-58
2023/04/12 07:21:36;;;;;;;2.97;1.13;;;8.40;99.90;;;;;;5057462;28;20206;-59
2023/04/12 07:24:03;;;;;;;2.20;1.60;;;8.50;99.90;;;;;;5069342;28;20194;-59
2023/04/12 07:26:30;;;;;;;2.40;1.20;;;8.70;99.90;;;;;;5082331;28;20276;-59
2023/04/12 07:28:58;;;;;;;2.50;1.40;;;8.80;99.90;;;;;;5061599;28;20237;-56
2023/04/12 07:31:24;;;;;;;4.53;1.50;;;8.90;99.90;;;;;;5058913;28;20205;-59
2023/04/12 07:33:51;;;;;;;2.23;1.37;;;9.00;99.90;;;;;;5049806;28;20222;-58
2023/04/12 07:36:19;;;;;;;2.60;1.37;;;9.10;99.90;;;;;;5051991;28;20288;-59
2023/04/12 07:38:50;;;;;;;3.73;1.43;;;9.10;99.90;;;;;;5080398;28;20214;-59
2023/04/12 07:41:36;;;;;;;3.00;1.30;;;9.20;99.90;;;;;;5082063;28;20596;-59
2023/04/12 07:44:04;;;;;;;4.93;1.60;;;9.30;99.90;;;;;;5087093;28;20283;-58
2023/04/12 07:46:32;;;;;;;4.03;1.70;;;9.40;99.90;;;;;;5071649;28;20198;-59
2023/04/12 07:48:58;;;;;;;6.23;1.70;;;9.50;99.90;;;;;;5064086;28;20237;-58
2023/04/12 07:51:26;;;;;;;4.97;1.70;;;9.50;99.90;;;;;;5052774;28;20214;-57
2023/04/12 07:53:55;;;;;;;2.17;1.53;;;9.60;99.90;;;;;;5084988;28;20194;-59
2023/04/12 07:56:21;;;;;;;5.30;1.50;;;9.50;99.90;;;;;;5081292;28;20183;-59
2023/04/12 07:58:48;;;;;;;1.70;1.60;;;9.50;99.90;;;;;;5073105;28;20222;-59
2023/04/12 08:01:15;;;;;;;4.10;1.70;;;9.40;99.90;;;;;;5068101;28;20194;-59
2023/04/12 08:03:42;;;;;;;3.50;1.67;;;9.40;99.90;;;;;;5065929;28;20202;-58
2023/04/12 08:06:09;;;;;;;1.53;1.30;;;9.50;99.90;;;;;;5072895;28;20202;-59
2023/04/12 08:08:36;;;;;;;3.43;1.90;;;9.50;99.90;;;;;;5060225;28;20754;-59
2023/04/12 08:11:05;;;;;;;3.67;1.50;;;9.50;99.90;;;;;;5083421;28;20190;-58
2023/04/12 08:13:32;;;;;;;4.87;1.43;;;9.50;99.90;;;;;;5083624;28;20190;-58
2023/04/12 08:15:58;;;;;;;3.10;1.50;;;9.50;99.90;;;;;;5056279;28;20578;-56
2023/04/12 08:18:47;;;;;;;3.70;1.87;;;9.50;99.90;;;;;;5082913;28;20233;-59
2023/04/12 08:21:14;;;;;;;3.83;1.60;;;9.50;99.90;;;;;;5056485;28;20375;-59
2023/04/12 08:23:41;;;;;;;2.87;1.63;;;9.60;99.90;;;;;;5062430;28;20213;-57
2023/04/12 08:26:09;;;;;;;2.60;1.73;;;9.70;99.90;;;;;;5073310;28;20206;-58
2023/04/12 08:28:37;;;;;;;3.13;2.33;;;9.70;99.90;;;;;;5075168;28;20744;-55
2023/04/12 08:31:05;;;;;;;2.57;1.50;;;9.80;99.90;;;;;;5063384;28;20673;-58
2023/04/12 08:33:32;;;;;;;2.30;1.30;;;9.80;99.90;;;;;;5077481;28;20194;-56
2023/04/12 08:35:59;;;;;;;3.73;1.50;;;9.80;99.90;;;;;;5066331;28;20202;-58
2023/04/12 08:38:26;;;;;;;4.77;2.07;;;9.80;99.90;;;;;;5048485;28;22391;-58
2023/04/12 08:40:53;;;;;;;2.47;1.50;;;9.80;99.90;;;;;;5072172;28;20198;-57
2023/04/12 08:43:24;;;;;;;3.43;1.67;;;9.70;99.90;;;;;;5065915;28;20225;-58
2023/04/12 08:45:51;;;;;;;5.47;1.70;;;9.70;99.90;;;;;;5079917;28;20202;-58
2023/04/12 08:48:21;;;;;;;2.37;1.77;;;9.70;99.90;;;;;;5054217;28;20222;-58
2023/04/12 08:50:50;;;;;;;3.97;1.70;;;9.70;99.90;;;;;;5075144;28;20224;-57
2023/04/12 08:53:17;;;;;;;3.27;1.17;;;9.60;99.90;;;;;;5066299;28;20271;-58
2023/04/12 08:55:44;;;;;;;3.33;1.60;;;9.60;99.90;;;;;;5053279;28;20286;-58
2023/04/12 08:58:13;;;;;;;3.77;1.57;;;9.60;99.90;;;;;;5074424;28;20218;-58
2023/04/12 09:00:42;;;;;;;3.87;1.77;;;9.60;99.90;;;;;;5077490;28;20233;-55
2023/04/12 09:03:10;;;;;;;3.43;1.70;;;9.70;99.90;;;;;;5052887;28;20811;-58
2023/04/12 09:05:37;;;;;;;1.83;1.27;;;9.70;99.90;;;;;;5052331;28;20213;-57
2023/04/12 09:08:04;;;;;;;3.93;1.83;;;9.70;99.90;;;;;;5064243;28;20222;-58
2023/04/12 09:10:35;;;;;;;2.63;1.67;;;9.80;99.90;;;;;;5054017;28;20251;-59
2023/04/12 09:13:03;;;;;;;4.20;1.50;;;9.80;99.90;;;;;;5075603;28;20206;-62
2023/04/12 09:15:30;;;;;;;2.90;1.20;;;9.80;99.90;;;;;;5077380;28;20285;-59
2023/04/12 09:18:07;;;;;;;3.20;1.53;;;9.80;99.90;;;;;;5043124;28;20225;-58
2023/04/12 09:20:35;;;;;;;1.10;1.07;;;9.90;99.90;;;;;;5072720;28;20233;-59
2023/04/12 09:23:14;;;;;;;1.77;1.40;;;10.00;99.90;;;;;;5025016;28;20362;-58
2023/04/12 09:25:44;;;;;;;2.40;1.60;;;10.00;99.90;;;;;;5055037;28;20210;-58
2023/04/12 09:28:19;;;;;;;2.93;1.53;;;10.10;99.90;;;;;;5077755;28;21059;-59
2023/04/12 09:30:50;;;;;;;4.00;1.37;;;10.20;99.90;;;;;;5073096;28;20272;-58
2023/04/12 09:33:19;;;;;;;3.53;1.63;;;10.20;99.90;;;;;;5063122;28;20213;-59
2023/04/12 09:35:47;;;;;;;3.27;1.10;;;10.20;99.90;;;;;;5062279;28;20330;-59
2023/04/12 09:38:14;;;;;;;4.67;1.57;;;10.30;99.90;;;;;;5070676;28;20233;-59
2023/04/12 09:40:41;;;;;;;4.00;1.30;;;10.40;99.90;;;;;;5063510;28;20680;-58
2023/04/12 09:43:09;;;;;;;2.33;1.60;;;10.50;99.90;;;;;;5070120;28;20206;-57
2023/04/12 09:45:38;;;;;;;4.43;1.23;;;10.60;99.90;;;;;;5079428;28;20203;-59
2023/04/12 09:48:07;;;;;;;4.67;1.67;;;10.60;99.90;;;;;;5067619;28;20715;-59
2023/04/12 09:50:35;;;;;;;2.10;1.30;;;10.60;99.90;;;;;;5061281;28;20293;-58
2023/04/12 09:53:03;;;;;;;5.43;1.50;;;10.60;99.90;;;;;;5074099;28;20670;-58
2023/04/12 09:55:31;;;;;;;2.27;1.43;;;10.60;99.90;;;;;;5065775;28;20229;-58
2023/04/12 09:58:03;;;;;;;3.33;1.57;;;10.60;99.90;;;;;;5057049;28;20258;-59
2023/04/12 10:00:33;;;;;;;4.50;1.60;;;10.60;99.90;;;;;;5075959;28;20344;-57
2023/04/12 10:03:01;;;;;;;5.23;1.67;;;10.60;99.90;;;;;;5039538;28;20209;-56
2023/04/12 10:05:27;;;;;;;2.47;1.20;;;10.60;99.90;;;;;;5057122;28;20205;-56
2023/04/12 10:07:56;;;;;;;3.80;1.70;;;10.60;99.90;;;;;;5071882;28;20226;-58
2023/04/12 10:10:25;;;;;;;4.57;1.50;;;10.70;99.90;;;;;;5054926;28;20208;-58
2023/04/12 10:12:52;;;;;;;2.53;1.50;;;10.70;99.90;;;;;;5050332;28;20658;-57
2023/04/12 10:15:20;;;;;;;2.07;1.37;;;10.70;99.90;;;;;;5078523;28;20228;-57
2023/04/12 10:17:56;;;;;;;1.93;1.30;;;10.80;99.90;;;;;;5046287;28;20313;-58
2023/04/12 10:20:23;;;;;;;2.17;1.37;;;10.80;99.90;;;;;;5072130;28;20271;-58
2023/04/12 10:22:52;;;;;;;4.90;1.77;;;10.80;99.90;;;;;;5070115;28;20765;-58
2023/04/12 10:25:25;;;;;;;2.97;1.37;;;10.80;99.90;;;;;;5056595;28;20209;-58
2023/04/12 10:27:54;;;;;;;4.47;1.50;;;10.90;99.90;;;;;;5076090;28;20309;-57
2023/04/12 10:30:23;;;;;;;3.80;1.37;;;10.90;99.90;;;;;;5048592;28;20209;-58
2023/04/12 10:33:06;;;;;;;3.40;1.37;;;10.90;99.90;;;;;;5059036;28;20295;-57
2023/04/12 10:35:49;;;;;;;4.87;1.60;;;10.90;99.90;;;;;;5063731;28;21023;-58
2023/04/12 10:38:45;;;;;;;6.30;1.90;;;10.80;99.90;;;;;;5066141;28;20309;-54
2023/04/12 10:41:23;;;;;;;3.33;1.60;;;10.70;99.90;;;;;;5078962;28;20601;-56
2023/04/12 10:44:12;;;;;;;4.87;1.60;;;10.70;99.90;;;;;;5052614;28;20217;-58
2023/04/12 10:46:50;;;;;;;2.53;1.70;;;10.70;99.90;;;;;;5066558;28;20205;-56
2023/04/12 10:49:18;;;;;;;5.00;1.40;;;10.70;99.90;;;;;;5069977;28;20737;-57
2023/04/12 10:52:12;;;;;;;4.00;1.83;;;10.70;99.90;;;;;;5050434;28;20206;-58
2023/04/12 10:54:40;;;;;;;3.93;1.47;;;10.80;99.90;;;;;;5066247;28;20198;-58
2023/04/12 10:57:44;;;;;;;3.93;1.70;;;10.80;99.90;;;;;;5060537;28;20221;-57
2023/04/12 11:00:11;;;;;;;2.97;1.73;;;10.80;99.90;;;;;;5044460;28;20957;-56
2023/04/12 11:03:08;;;;;;;2.87;1.60;;;10.70;99.90;;;;;;5056814;28;20285;-57
2023/04/12 11:05:58;;;;;;;3.70;1.70;;;10.70;99.90;;;;;;5067082;28;20329;-57
2023/04/12 11:08:46;;;;;;;4.07;1.53;;;10.60;99.90;;;;;;5037402;28;22754;-56
2023/04/12 11:11:23;;;;;;;2.90;1.50;;;10.50;99.90;;;;;;5073117;28;20193;-60
2023/04/12 11:13:58;;;;;;;3.17;1.60;;;10.40;99.90;;;;;;5055703;28;20214;-57
2023/04/12 11:17:21;;;;;;;3.70;1.70;;;10.40;99.90;;;;;;5075251;28;20959;-56
2023/04/12 11:19:57;;;;;;;3.17;2.30;;;10.20;99.90;;;;;;5068009;28;20219;-58
2023/04/12 11:22:28;;;;;;;2.93;1.90;;;10.10;99.90;;;;;;5060691;28;20312;-57
2023/04/12 11:24:57;;;;;;;2.57;2.03;;;10.00;99.90;;;;;;5069196;28;20251;-58
2023/04/12 11:27:25;;;;;;;2.27;2.07;;;9.90;99.90;;;;;;5070627;28;21077;-58
2023/04/12 11:29:54;;;;;;;3.67;1.90;;;9.80;99.90;;;;;;5054947;28;20240;-57
2023/04/12 11:32:22;;;;;;;4.50;2.67;;;9.70;99.90;;;;;;5070403;28;20214;-58
2023/04/12 11:34:50;;;;;;;5.30;2.10;;;9.60;99.90;;;;;;5069923;28;20694;-56
2023/04/12 11:37:19;;;;;;;4.37;2.20;;;9.50;99.90;;;;;;5079448;28;20210;-58
2023/04/12 11:39:48;;;;;;;2.70;2.00;;;9.40;99.90;;;;;;5069975;28;20226;-58
2023/04/12 11:42:17;;;;;;;4.67;2.67;;;9.30;99.90;;;;;;5049961;28;20297;-55
2023/04/12 11:44:45;;;;;;;2.80;2.37;;;9.20;99.90;;;;;;5061228;28;20260;-58
2023/04/12 11:47:18;;;;;;;2.97;2.37;;;9.10;99.90;;;;;;5073911;28;20249;-58
2023/04/12 11:49:49;;;;;;;6.07;2.50;;;9.10;99.90;;;;;;5083035;28;20205;-58
2023/04/12 11:52:20;;;;;;;5.03;3.07;;;9.00;99.90;;;;;;5071039;28;20258;-56
2023/04/12 11:55:07;;;;;;;3.23;2.60;;;9.00;99.90;;;;;;5061273;28;21445;-58
2023/04/12 11:57:36;;;;;;;7.90;2.33;;;9.00;99.90;;;;;;5081391;28;20304;-57
2023/04/12 12:00:05;;;;;;;6.27;2.90;;;9.00;99.90;;;;;;5070832;28;20770;-57
2023/04/12 12:02:40;;;;;;;4.23;3.27;;;9.00;99.90;;;;;;5074857;28;20611;-57
2023/04/12 12:05:10;;;;;;;3.70;2.97;;;9.00;99.90;;;;;;5073385;28;20191;-58
2023/04/12 12:07:37;;;;;;;4.93;3.40;;;8.90;99.90;;;;;;5072182;28;20246;-57
2023/04/12 12:10:05;;;;;;;5.07;3.37;;;8.90;99.90;;;;;;5075044;28;20198;-57
2023/04/12 12:12:33;;;;;;;4.83;3.33;;;8.90;99.90;;;;;;5080331;28;20229;-56
2023/04/12 12:15:19;;;;;;;3.37;2.83;;;9.00;99.90;;;;;;5080194;28;20327;-57
2023/04/12 12:17:51;;;;;;;5.27;4.03;;;9.00;99.90;;;;;;5054173;28;20236;-58
2023/04/12 12:20:23;;;;;;;6.57;3.60;;;9.10;99.90;;;;;;5076900;28;20210;-56
2023/04/12 12:22:50;;;;;;;5.83;3.90;;;9.10;99.90;;;;;;5064319;28;20206;-58
2023/04/12 12:25:18;;;;;;;3.90;3.33;;;9.10;99.90;;;;;;5078087;28;20198;-58
2023/04/12 12:27:49;;;;;;;6.23;3.80;;;9.20;99.90;;;;;;5074088;28;20222;-56
2023/04/12 12:30:17;;;;;;;4.57;3.83;;;9.20;99.90;;;;;;5077418;28;20182;-56
2023/04/12 12:32:44;;;;;;;7.57;3.67;;;9.20;99.90;;;;;;5056574;28;20205;-57
2023/04/12 12:35:35;;;;;;;5.53;3.90;;;9.20;99.90;;;;;;5076709;28;20205;-57
2023/04/12 12:38:07;;;;;;;4.53;3.60;;;9.10;99.90;;;;;;5071629;28;20213;-57
2023/04/12 12:40:34;;;;;;;4.77;3.53;;;9.10;99.90;;;;;;5080943;28;20210;-58
2023/04/12 12:43:02;;;;;;;5.90;3.67;;;9.10;99.90;;;;;;5074829;28;20650;-58
2023/04/12 12:45:51;;;;;;;5.93;3.53;;;9.10;99.90;;;;;;5080568;28;20308;-58
2023/04/12 12:48:20;;;;;;;4.40;3.67;;;9.10;99.90;;;;;;5054778;28;20214;-58
2023/04/12 12:50:48;;;;;;;5.73;3.53;;;9.20;99.90;;;;;;5081470;28;20199;-58
2023/04/12 12:53:14;;;;;;;7.33;3.40;;;9.20;99.90;;;;;;5068117;28;20228;-56
2023/04/12 12:55:41;;;;;;;5.17;3.00;;;9.20;99.90;;;;;;5082239;28;20226;-57
2023/04/12 12:58:08;;;;;;;3.73;2.50;;;9.20;99.90;;;;;;5075858;28;20746;-58
2023/04/12 13:00:35;;;;;;;2.70;2.43;;;9.20;99.90;;;;;;5071674;28;20218;-57
2023/04/12 13:03:01;;;;;;;4.03;2.43;;;9.10;99.90;;;;;;5056639;28;20202;-56
2023/04/12 13:05:29;;;;;;;7.27;2.53;;;9.10;99.90;;;;;;5080400;28;20251;-58
2023/04/12 13:07:57;;;;;;;4.10;2.50;;;9.00;99.90;;;;;;5074190;28;20221;-57
2023/04/12 13:10:25;;;;;;;5.40;2.77;;;9.10;99.90;;;;;;5066539;28;20208;-57
2023/04/12 13:12:52;;;;;;;4.23;2.70;;;9.10;99.90;;;;;;5057896;28;20206;-58
2023/04/12 13:15:19;;;;;;;6.43;2.80;;;9.10;99.90;;;;;;5067923;28;20301;-58